Posoltega, Nicaragua

10:16 AM CST on July 28, 2015 (GMT -0600)
Chinandega | | Change Station
CLOSE
Current Station
Personal Weather Station
Location: Chinandega, CHINANDEGA
Elevation: 243 ft
Nearby Weather Stations

Elev 243 ft 12.62 °N, 87.12 °W | Updated 6 minutes ago

Scattered Clouds
Scattered Clouds
92.8 °F
Feels Like 105 °F
N
1.7
Wind Variable Wind from SSE

Today
High -- | Low -- °F
--% Chance of Precip.
Yesterday
High -- | Low -- °F
Precip. -- in
5:33 AM 6:15 PM
Waxing Gibbous, 90% visible
Pressure 29.86 in
Visibility 6.2 miles
Clouds Scattered Clouds 2500 ft
Scattered Clouds 9000 ft
Heat Index 105 °F
Dew Point 75 °F
Humidity 57%
Rainfall 0.00 in
Snow Depth Not available.
UV 8 out of 12
Pollen Not available.
Air Quality Not available.
Flu Activity Not available.
METAR MNCH 281600Z 31004KT 9999 SCT025 SCT090 32/23 Q1011

More Conditions Fewer Conditions

Pressure 29.86 in
Visibility 6.2 miles
Clouds Scattered Clouds 2500 ft
Scattered Clouds 9000 ft
Heat Index 105 °F
Dew Point 75 °F
Humidity 57%
Rainfall 0.00 in
Snow Depth Not available.
UV 8 out of 12
Pollen Not available.
Air Quality Not available.
Flu Activity Not available.
METAR MNCH 281600Z 31004KT 9999 SCT025 SCT090 32/23 Q1011

More Conditions Fewer Conditions

10-Day Weather Forecast

×

Almanac

Astronomy

Jul. 28, 2015 Rise Set
Actual Time
Civil Twilight
Nautical Twilight
Astronomical Twilight
Moon
Length of Visible Light
Length of Day
Tomorrow will be .
, % of the Moon is Illuminated

Today's Extremes

Country Highs Country Lows

Community

WunderPhotos

Upload Photos

1,841,875 photos uploaded!

WunderBlogs® & News

Nearby

Air Quality

  Air Quality AQ Index Pollutant
Not available.

Snow Depth

Station Depth Elevation

Earthquake Activity

City Distance Mag. Time & Date
Minimum magnitude displayed is 2.5.

Coastal Water Temperatures

Place Temperature

Stations

Nearby Weather Stations

Station Location Temp. Windchill Dew Point Humidity Wind Precip. Elev Updated Type